Lady Caroline — WDE6297 — position and weather

sailwx.info

Track history (hours):
 
Tides and Currents Weather Stations Pressure Air Temp Water Temp Dewpoint Dewpoint Depression Visibility Wind Speed Wind Dir Waves Ship Positions

Lady Caroline

Owner: Second Lady Caroline, LLC, Beverly Hills, CA. More information available from US FCC via Universal Licensing System.

Last reported at 2017-Jun-22 16:56 UTC. Time now 2017-Jul-27 04:34 UTC.
Position N 26°08' W 080°07'.
Warning: this ship's position is 34 days out of date.

Length 33 m; draft 2.3 m.

Type: Pleasure craft. MMSI: 367378430.

Date/timePositionNaut miles runAvg speedWind from/ knotsBaromVisibWave heightAir tempDewpointWater temp
2017-Jun-22 16:56N 26°08' W 080°07'1 1.3
2017-Jun-22 16:30N 26°08' W 080°07'1 2.2
2017-Jun-22 16:00N 26°07' W 080°07'2 3.5
2017-Jun-22 15:31N 26°06' W 080°05'2 3.4
2017-Jun-22 15:00N 26°08' W 080°04'2 2.4
2017-Jun-22 14:00N 26°07' W 080°07'1 2.0
2017-Jun-22 13:30N 26°08' W 080°07'0 0.0
2017-Jun-22 13:00N 26°08' W 080°07'0 0.0
2017-Jun-22 12:30N 26°08' W 080°07'0 0.0
2017-Jun-22 12:00N 26°08' W 080°07'0 0.0
2017-Jun-22 11:30N 26°08' W 080°07'0 0.0
2017-Jun-22 11:00N 26°08' W 080°07'0 0.0
2017-Jun-22 10:30N 26°08' W 080°07'0 0.0
2017-Jun-22 10:00N 26°08' W 080°07'0 0.0
2017-Jun-22 09:30N 26°08' W 080°07'0 0.0
2017-Jun-22 09:00N 26°08' W 080°07'0 0.0
2017-Jun-22 08:30N 26°08' W 080°07'0 0.0
2017-Jun-22 08:00N 26°08' W 080°07'0 0.0
2017-Jun-22 07:30N 26°08' W 080°07'0 0.0
2017-Jun-22 07:00N 26°08' W 080°07'0 0.0
2017-Jun-22 06:30N 26°08' W 080°07'0 0.0
2017-Jun-22 06:00N 26°08' W 080°07'0 0.0
2017-Jun-22 05:30N 26°08' W 080°07'0 0.0
2017-Jun-22 05:00N 26°08' W 080°07'0 0.0
2017-Jun-22 04:30N 26°08' W 080°07'0 0.0
2017-Jun-22 04:00N 26°08' W 080°07'0 0.0
2017-Jun-22 03:30N 26°08' W 080°07'0 0.0
2017-Jun-22 03:00N 26°08' W 080°07'0 0.0
2017-Jun-22 02:30N 26°08' W 080°07'0 0.0
2017-Jun-22 02:00N 26°08' W 080°07'0 0.0
2017-Jun-22 01:30N 26°08' W 080°07'0 0.0
2017-Jun-22 01:00N 26°08' W 080°07'0 0.0
2017-Jun-22 00:30N 26°08' W 080°07'0 0.0
2017-Jun-22 00:00N 26°08' W 080°07'0 0.0
2017-Jun-21 23:30N 26°08' W 080°07'0 0.0
2017-Jun-21 23:00N 26°08' W 080°07'0 0.0
2017-Jun-21 22:30N 26°08' W 080°07'0 0.0
2017-Jun-21 22:00N 26°08' W 080°07'0 0.0
2017-Jun-21 21:30N 26°08' W 080°07'0 0.0
2017-Jun-21 21:00N 26°08' W 080°07'0 0.0
2017-Jun-21 20:30N 26°08' W 080°07'0 0.0
2017-Jun-21 20:00N 26°08' W 080°07'0 0.0
2017-Jun-21 19:30N 26°08' W 080°07'0 0.0
2017-Jun-21 19:00N 26°08' W 080°07'1 1.3
2017-Jun-21 18:30N 26°08' W 080°07'3 5.1
2017-Jun-21 18:00N 26°05' W 080°07'2 0.6
2017-Jun-21 15:21N 26°04' W 080°08'0 0.2
2017-Jun-21 15:00N 26°04' W 080°08'0 0.0
2017-Jun-21 14:00N 26°04' W 080°08'2 3.4
2017-Jun-21 13:30N 26°05' W 080°07'0 0.9
2017-Jun-21 13:00N 26°05' W 080°07'  
2017-Jun-16 15:14N 26°08' W 080°07'0 0.4
2017-Jun-16 15:01N 26°08' W 080°07'2 4.5
2017-Jun-16 14:30N 26°06' W 080°07'2 1.8
2017-Jun-16 13:30N 26°08' W 080°06'1 1.7
2017-Jun-16 13:00N 26°08' W 080°07'0 0.0
2017-Jun-16 12:30N 26°08' W 080°07'0 0.0
2017-Jun-16 12:00N 26°08' W 080°07'0 0.0
2017-Jun-16 11:30N 26°08' W 080°07'0 0.0
2017-Jun-16 11:00N 26°08' W 080°07'0 0.0
2017-Jun-16 10:30N 26°08' W 080°07'0 0.0
2017-Jun-16 10:00N 26°08' W 080°07'0 0.0
2017-Jun-16 09:30N 26°08' W 080°07'0 0.0
2017-Jun-16 09:00N 26°08' W 080°07'0 0.0
2017-Jun-16 08:30N 26°08' W 080°07'0 0.0
2017-Jun-16 08:00N 26°08' W 080°07'0 0.0
2017-Jun-16 07:30N 26°08' W 080°07'0 0.0
2017-Jun-16 07:00N 26°08' W 080°07'0 0.0
2017-Jun-16 06:30N 26°08' W 080°07'0 0.0
2017-Jun-16 06:00N 26°08' W 080°07'0 0.0
2017-Jun-16 05:30N 26°08' W 080°07'0 0.0
2017-Jun-16 05:00N 26°08' W 080°07'0 0.0
2017-Jun-16 04:30N 26°08' W 080°07'0 0.0
2017-Jun-16 04:00N 26°08' W 080°07'0 0.0
2017-Jun-16 03:30N 26°08' W 080°07'0 0.0
2017-Jun-16 03:00N 26°08' W 080°07'0 0.0
2017-Jun-16 02:30N 26°08' W 080°07'0 0.0
2017-Jun-16 02:00N 26°08' W 080°07'0 0.0
2017-Jun-16 01:30N 26°08' W 080°07'0 0.0
2017-Jun-16 01:00N 26°08' W 080°07'0 0.0
2017-Jun-16 00:30N 26°08' W 080°07'0 0.0
2017-Jun-16 00:00N 26°08' W 080°07'0 0.0
2017-Jun-15 23:30N 26°08' W 080°07'0 0.0
2017-Jun-15 23:00N 26°08' W 080°07'  
Track history (hours):
 
Tides and Currents Weather Stations Pressure Air Temp Water Temp Dewpoint Dewpoint Depression Visibility Wind Speed Wind Dir Waves Ship Positions

Lady Caroline

Owner: Second Lady Caroline, LLC, Beverly Hills, CA. More information available from US FCC via Universal Licensing System.

Last reported at 2017-Jun-22 16:56 UTC. Time now 2017-Jul-27 04:34 UTC.
Position N 26°08' W 080°07'.
Warning: this ship's position is 34 days out of date.

Length 33 m; draft 2.3 m.

Type: Pleasure craft. MMSI: 367378430.

Date/timePositionNaut miles runAvg speedWind from/ knotsBaromVisibWave heightAir tempDewpointWater temp
2017-Jun-22 16:56N 26°08' W 080°07'1 1.3
2017-Jun-22 16:30N 26°08' W 080°07'1 2.2
2017-Jun-22 16:00N 26°07' W 080°07'2 3.5
2017-Jun-22 15:31N 26°06' W 080°05'2 3.4
2017-Jun-22 15:00N 26°08' W 080°04'2 2.4
2017-Jun-22 14:00N 26°07' W 080°07'1 2.0
2017-Jun-22 13:30N 26°08' W 080°07'0 0.0
2017-Jun-22 13:00N 26°08' W 080°07'0 0.0
2017-Jun-22 12:30N 26°08' W 080°07'0 0.0
2017-Jun-22 12:00N 26°08' W 080°07'0 0.0
2017-Jun-22 11:30N 26°08' W 080°07'0 0.0
2017-Jun-22 11:00N 26°08' W 080°07'0 0.0
2017-Jun-22 10:30N 26°08' W 080°07'0 0.0
2017-Jun-22 10:00N 26°08' W 080°07'0 0.0
2017-Jun-22 09:30N 26°08' W 080°07'0 0.0
2017-Jun-22 09:00N 26°08' W 080°07'0 0.0
2017-Jun-22 08:30N 26°08' W 080°07'0 0.0
2017-Jun-22 08:00N 26°08' W 080°07'0 0.0
2017-Jun-22 07:30N 26°08' W 080°07'0 0.0
2017-Jun-22 07:00N 26°08' W 080°07'0 0.0
2017-Jun-22 06:30N 26°08' W 080°07'0 0.0
2017-Jun-22 06:00N 26°08' W 080°07'0 0.0
2017-Jun-22 05:30N 26°08' W 080°07'0 0.0
2017-Jun-22 05:00N 26°08' W 080°07'0 0.0
2017-Jun-22 04:30N 26°08' W 080°07'0 0.0
2017-Jun-22 04:00N 26°08' W 080°07'0 0.0
2017-Jun-22 03:30N 26°08' W 080°07'0 0.0
2017-Jun-22 03:00N 26°08' W 080°07'0 0.0
2017-Jun-22 02:30N 26°08' W 080°07'0 0.0
2017-Jun-22 02:00N 26°08' W 080°07'0 0.0
2017-Jun-22 01:30N 26°08' W 080°07'0 0.0
2017-Jun-22 01:00N 26°08' W 080°07'0 0.0
2017-Jun-22 00:30N 26°08' W 080°07'0 0.0
2017-Jun-22 00:00N 26°08' W 080°07'0 0.0
2017-Jun-21 23:30N 26°08' W 080°07'0 0.0
2017-Jun-21 23:00N 26°08' W 080°07'0 0.0
2017-Jun-21 22:30N 26°08' W 080°07'0 0.0
2017-Jun-21 22:00N 26°08' W 080°07'0 0.0
2017-Jun-21 21:30N 26°08' W 080°07'0 0.0
2017-Jun-21 21:00N 26°08' W 080°07'0 0.0
2017-Jun-21 20:30N 26°08' W 080°07'0 0.0
2017-Jun-21 20:00N 26°08' W 080°07'0 0.0
2017-Jun-21 19:30N 26°08' W 080°07'0 0.0
2017-Jun-21 19:00N 26°08' W 080°07'1 1.3
2017-Jun-21 18:30N 26°08' W 080°07'3 5.1
2017-Jun-21 18:00N 26°05' W 080°07'2 0.6
2017-Jun-21 15:21N 26°04' W 080°08'0 0.2
2017-Jun-21 15:00N 26°04' W 080°08'0 0.0
2017-Jun-21 14:00N 26°04' W 080°08'2 3.4
2017-Jun-21 13:30N 26°05' W 080°07'0 0.9
2017-Jun-21 13:00N 26°05' W 080°07'  
2017-Jun-16 15:14N 26°08' W 080°07'0 0.4
2017-Jun-16 15:01N 26°08' W 080°07'2 4.5
2017-Jun-16 14:30N 26°06' W 080°07'2 1.8
2017-Jun-16 13:30N 26°08' W 080°06'1 1.7
2017-Jun-16 13:00N 26°08' W 080°07'0 0.0
2017-Jun-16 12:30N 26°08' W 080°07'0 0.0
2017-Jun-16 12:00N 26°08' W 080°07'0 0.0
2017-Jun-16 11:30N 26°08' W 080°07'0 0.0
2017-Jun-16 11:00N 26°08' W 080°07'0 0.0
2017-Jun-16 10:30N 26°08' W 080°07'0 0.0
2017-Jun-16 10:00N 26°08' W 080°07'0 0.0
2017-Jun-16 09:30N 26°08' W 080°07'0 0.0
2017-Jun-16 09:00N 26°08' W 080°07'0 0.0
2017-Jun-16 08:30N 26°08' W 080°07'0 0.0
2017-Jun-16 08:00N 26°08' W 080°07'0 0.0
2017-Jun-16 07:30N 26°08' W 080°07'0 0.0
2017-Jun-16 07:00N 26°08' W 080°07'0 0.0
2017-Jun-16 06:30N 26°08' W 080°07'0 0.0
2017-Jun-16 06:00N 26°08' W 080°07'0 0.0
2017-Jun-16 05:30N 26°08' W 080°07'0 0.0
2017-Jun-16 05:00N 26°08' W 080°07'0 0.0
2017-Jun-16 04:30N 26°08' W 080°07'0 0.0
2017-Jun-16 04:00N 26°08' W 080°07'0 0.0
2017-Jun-16 03:30N 26°08' W 080°07'0 0.0
2017-Jun-16 03:00N 26°08' W 080°07'0 0.0
2017-Jun-16 02:30N 26°08' W 080°07'0 0.0
2017-Jun-16 02:00N 26°08' W 080°07'0 0.0
2017-Jun-16 01:30N 26°08' W 080°07'0 0.0
2017-Jun-16 01:00N 26°08' W 080°07'0 0.0
2017-Jun-16 00:30N 26°08' W 080°07'0 0.0
2017-Jun-16 00:00N 26°08' W 080°07'0 0.0
2017-Jun-15 23:30N 26°08' W 080°07'0 0.0
2017-Jun-15 23:00N 26°08' W 080°07'  

Dump ship's entire track history